createdAt,value
2018-09-28T00:01:28.749Z,8.83
2018-09-28T00:03:56.413Z,8.10
2018-09-28T00:06:24.042Z,8.33
2018-09-28T00:08:51.728Z,8.83
2018-09-28T00:11:19.423Z,8.40
2018-09-28T00:13:47.152Z,8.63
2018-09-28T00:16:14.863Z,8.50
2018-09-28T00:18:42.568Z,8.73
2018-09-28T00:21:10.219Z,9.37
2018-09-28T00:23:37.874Z,9.37
2018-09-28T00:26:05.900Z,8.93
2018-09-28T00:28:33.443Z,8.93
2018-09-28T00:31:01.074Z,8.93
2018-09-28T00:33:28.844Z,9.50
2018-09-28T00:35:56.553Z,9.30
2018-09-28T00:38:24.244Z,9.73
2018-09-28T00:40:51.968Z,11.10
2018-09-28T00:43:19.612Z,9.53
2018-09-28T00:45:47.336Z,11.07
2018-09-28T00:48:15.382Z,10.87
2018-09-28T00:50:43.048Z,10.70
2018-09-28T00:53:10.684Z,10.37
2018-09-28T00:55:38.389Z,10.07
2018-09-28T00:58:06.097Z,10.53
2018-09-28T01:00:33.789Z,10.17
2018-09-28T01:03:01.459Z,10.80
2018-09-28T01:05:29.133Z,11.40
2018-09-28T01:07:56.844Z,10.33
2018-09-28T01:10:24.524Z,11.23
2018-09-28T01:12:52.147Z,10.23
2018-09-28T01:15:19.825Z,10.57
2018-09-28T01:17:47.551Z,10.83
2018-09-28T01:20:15.515Z,11.27
2018-09-28T01:22:43.212Z,12.23
2018-09-28T01:25:10.866Z,11.50
2018-09-28T01:27:38.563Z,11.97
2018-09-28T01:30:06.282Z,11.93
2018-09-28T01:32:33.924Z,11.87
2018-09-28T01:35:01.598Z,11.90
2018-09-28T01:37:29.270Z,11.73
2018-09-28T01:39:56.941Z,12.63
2018-09-28T01:42:26.833Z,12.17
2018-09-28T01:44:54.644Z,12.97
2018-09-28T01:47:22.389Z,13.10
2018-09-28T01:49:50.084Z,13.17
2018-09-28T01:52:17.841Z,14.50
2018-09-28T01:54:45.555Z,13.60
2018-09-28T01:57:13.258Z,14.10
2018-09-28T01:59:40.937Z,15.40
2018-09-28T02:02:08.626Z,14.07
2018-09-28T02:04:36.372Z,14.43
2018-09-28T02:07:04.055Z,13.97
2018-09-28T02:09:31.690Z,14.57
2018-09-28T02:11:59.370Z,15.03
2018-09-28T02:14:27.030Z,15.20
2018-09-28T02:16:54.687Z,16.27
2018-09-28T02:19:22.328Z,16.47
2018-09-28T02:21:50.017Z,16.93
2018-09-28T02:24:17.648Z,17.70
2018-09-28T02:26:45.334Z,17.67
2018-09-28T02:29:12.975Z,17.23
2018-09-28T02:31:40.624Z,13.67
2018-09-28T02:34:08.322Z,16.53
2018-09-28T02:36:35.982Z,16.00
2018-09-28T02:39:05.141Z,15.80
2018-09-28T02:41:32.818Z,16.37
2018-09-28T02:44:00.472Z,15.43
2018-09-28T02:46:28.173Z,16.43
2018-09-28T02:48:55.878Z,17.20
2018-09-28T02:51:23.538Z,16.43
2018-09-28T02:53:51.159Z,16.23
2018-09-28T02:56:18.832Z,16.73
2018-09-28T02:58:46.566Z,16.07
2018-09-28T03:01:14.243Z,16.50
2018-09-28T03:03:41.901Z,17.47
2018-09-28T03:06:09.607Z,16.53
2018-09-28T03:08:39.149Z,17.33
2018-09-28T03:11:06.850Z,17.60
2018-09-28T03:13:34.507Z,18.07
2018-09-28T03:16:02.189Z,19.53
2018-09-28T03:18:29.847Z,20.07
2018-09-28T03:20:57.524Z,20.03
2018-09-28T03:23:25.191Z,19.17
2018-09-28T03:25:52.874Z,18.60
2018-09-28T03:28:20.514Z,19.03
2018-09-28T03:30:48.192Z,18.80
2018-09-28T03:33:15.896Z,18.27
2018-09-28T03:35:43.603Z,19.27
2018-09-28T03:38:11.240Z,19.43
2018-09-28T03:40:39.024Z,18.90
2018-09-28T03:43:06.577Z,19.27
2018-09-28T03:45:34.248Z,19.17
2018-09-28T03:48:01.961Z,19.77
2018-09-28T03:50:29.741Z,20.10
2018-09-28T03:52:57.408Z,20.13
2018-09-28T03:55:25.039Z,19.87
2018-09-28T03:57:52.696Z,20.17
2018-09-28T04:00:20.356Z,18.20
2018-09-28T04:02:48.057Z,19.83
2018-09-28T04:05:15.662Z,19.10
2018-09-28T04:07:43.325Z,19.00
2018-09-28T04:10:10.985Z,19.93
2018-09-28T04:12:38.800Z,18.63
2018-09-28T04:15:06.517Z,18.00
2018-09-28T04:17:34.101Z,18.37
2018-09-28T04:20:01.742Z,17.90
2018-09-28T04:22:29.409Z,17.07
2018-09-28T04:24:57.181Z,18.00
2018-09-28T04:27:24.837Z,16.93
2018-09-28T04:29:52.485Z,18.67
2018-09-28T04:32:20.125Z,19.07
2018-09-28T04:34:47.921Z,17.53
2018-09-28T04:37:15.569Z,20.10
2018-09-28T04:39:43.212Z,20.17
2018-09-28T04:42:10.904Z,18.47
2018-09-28T04:44:38.637Z,17.70
2018-09-28T04:47:06.380Z,19.87
2018-09-28T04:49:34.028Z,19.67
2018-09-28T04:52:01.685Z,18.70
2018-09-28T04:54:29.365Z,18.33
2018-09-28T04:56:57.024Z,19.37
2018-09-28T04:59:24.729Z,19.10
2018-09-28T05:01:52.374Z,18.23
2018-09-28T05:04:20.041Z,17.97
2018-09-28T05:06:47.709Z,19.40
2018-09-28T05:09:15.520Z,20.10
2018-09-28T05:11:43.197Z,21.30
2018-09-28T05:14:10.924Z,19.43
2018-09-28T05:16:39.154Z,17.83
2018-09-28T05:19:07.152Z,18.73
2018-09-28T05:21:34.865Z,19.63
2018-09-28T05:24:02.504Z,19.73
2018-09-28T05:26:30.145Z,17.80
2018-09-28T05:28:57.887Z,19.00
2018-09-28T05:31:25.766Z,18.03
2018-09-28T05:33:53.313Z,18.23
2018-09-28T05:36:21.001Z,18.77
2018-09-28T05:38:48.649Z,17.63
2018-09-28T05:41:16.287Z,19.17
2018-09-28T05:43:44.033Z,19.27
2018-09-28T05:46:11.686Z,18.67
2018-09-28T05:48:39.529Z,17.43
2018-09-28T05:51:07.357Z,20.00
2018-09-28T05:53:35.001Z,19.03
2018-09-28T05:56:02.653Z,19.20
2018-09-28T05:58:35.851Z,20.47
2018-09-28T06:01:09.068Z,21.23
2018-09-28T06:03:41.253Z,32.20
2018-09-28T06:06:09.048Z,36.83
2018-09-28T06:08:37.076Z,38.20
2018-09-28T06:11:04.827Z,40.40
2018-09-28T06:13:32.545Z,38.03
2018-09-28T06:16:00.304Z,43.27
2018-09-28T06:18:27.944Z,44.90
2018-09-28T06:20:55.593Z,41.90
2018-09-28T06:23:23.309Z,45.67
2018-09-28T06:25:50.998Z,42.93
2018-09-28T06:28:18.666Z,44.60
2018-09-28T06:30:46.312Z,44.87
2018-09-28T06:33:14.008Z,44.50
2018-09-28T06:35:41.584Z,42.63
2018-09-28T06:38:09.292Z,43.03
2018-09-28T06:40:36.929Z,43.37
2018-09-28T06:43:04.546Z,40.63
2018-09-28T06:45:32.181Z,43.20
2018-09-28T06:47:59.948Z,39.83
2018-09-28T06:50:27.579Z,41.80
2018-09-28T06:52:55.246Z,41.60
2018-09-28T06:55:22.882Z,43.00
2018-09-28T06:57:50.568Z,39.87
2018-09-28T07:00:18.244Z,39.90
2018-09-28T07:02:45.922Z,39.50
2018-09-28T07:05:13.821Z,39.33
2018-09-28T07:07:41.718Z,38.17
2018-09-28T07:10:09.535Z,38.23
2018-09-28T07:12:37.328Z,35.40
2018-09-28T07:15:05.721Z,35.30
2018-09-28T07:17:33.489Z,33.57
2018-09-28T07:20:01.470Z,29.73
2018-09-28T07:22:29.268Z,30.00
2018-09-28T07:24:56.922Z,30.93
2018-09-28T07:27:24.696Z,31.17
2018-09-28T07:29:52.433Z,29.53
2018-09-28T07:32:21.155Z,27.67
2018-09-28T07:34:49.000Z,27.50
2018-09-28T07:37:16.856Z,27.97
2018-09-28T07:39:45.677Z,25.57
2018-09-28T07:42:13.448Z,24.63
2018-09-28T07:44:43.688Z,22.10
2018-09-28T07:47:11.436Z,22.13
2018-09-28T07:49:39.224Z,23.30
2018-09-28T07:52:07.129Z,20.73
2018-09-28T07:54:35.077Z,21.77
2018-09-28T07:57:02.876Z,20.23
2018-09-28T07:59:30.699Z,17.53
2018-09-28T08:01:58.657Z,18.47
2018-09-28T08:04:26.413Z,18.40
2018-09-28T08:06:54.332Z,15.87
2018-09-28T08:09:21.980Z,14.47
2018-09-28T08:11:49.724Z,15.50
2018-09-28T08:14:17.490Z,14.70
2018-09-28T08:16:45.249Z,12.13
2018-09-28T08:19:12.937Z,12.40
2018-09-28T08:21:40.639Z,12.03
2018-09-28T08:24:08.287Z,11.90
2018-09-28T08:26:35.815Z,10.70
2018-09-28T08:29:03.561Z,9.90
2018-09-28T08:31:31.190Z,8.83
2018-09-28T08:33:58.843Z,9.00
2018-09-28T08:36:26.634Z,8.47
2018-09-28T08:38:54.187Z,7.67
2018-09-28T08:41:22.012Z,7.93
2018-09-28T08:43:49.745Z,7.70
2018-09-28T08:46:17.716Z,7.93
2018-09-28T08:48:45.428Z,7.73
2018-09-28T08:51:13.100Z,8.00
2018-09-28T08:53:40.779Z,8.03
2018-09-28T08:56:08.512Z,6.53
2018-09-28T08:58:36.241Z,7.67
2018-09-28T09:01:03.969Z,6.67
2018-09-28T09:03:31.640Z,7.13
2018-09-28T09:05:59.327Z,6.20
2018-09-28T09:08:27.085Z,4.87
2018-09-28T09:10:54.783Z,3.40
2018-09-28T09:13:25.259Z,3.37
2018-09-28T09:15:53.017Z,2.60
2018-09-28T09:18:20.961Z,2.67
2018-09-28T09:20:48.675Z,2.90
2018-09-28T09:23:16.535Z,3.37
2018-09-28T09:25:44.165Z,3.07
2018-09-28T09:28:11.811Z,3.10
2018-09-28T09:30:39.472Z,3.40
2018-09-28T09:33:07.165Z,3.07
2018-09-28T09:35:34.836Z,3.47
2018-09-28T09:38:02.529Z,3.50
2018-09-28T09:40:30.212Z,3.73
2018-09-28T09:42:57.825Z,3.03
2018-09-28T09:45:25.477Z,3.30
2018-09-28T09:47:53.204Z,3.73
2018-09-28T09:50:20.871Z,3.53
2018-09-28T09:52:48.437Z,2.97
2018-09-28T09:55:16.186Z,2.70
2018-09-28T09:57:43.927Z,3.23
2018-09-28T10:00:15.967Z,3.03
2018-09-28T10:02:49.370Z,3.63
2018-09-28T10:05:17.037Z,3.00
2018-09-28T10:07:44.643Z,3.40
2018-09-28T10:10:12.332Z,3.20
2018-09-28T10:12:40.075Z,3.17
2018-09-28T10:15:07.835Z,3.23
2018-09-28T10:17:35.507Z,2.90
2018-09-28T10:20:03.185Z,3.13
2018-09-28T10:22:30.752Z,3.17
2018-09-28T10:24:58.392Z,3.60
2018-09-28T10:27:26.072Z,2.90
2018-09-28T10:29:53.625Z,3.03
2018-09-28T10:32:21.268Z,2.83
2018-09-28T10:34:48.972Z,3.17
2018-09-28T10:37:16.620Z,3.00
2018-09-28T10:39:45.724Z,2.97
2018-09-28T10:42:13.444Z,3.37
2018-09-28T10:44:41.097Z,3.57
2018-09-28T10:47:08.781Z,3.40
2018-09-28T10:49:36.359Z,3.43
2018-09-28T10:52:04.252Z,3.00
2018-09-28T10:54:31.872Z,3.30
2018-09-28T10:56:59.509Z,3.23
2018-09-28T10:59:27.071Z,3.00
2018-09-28T11:01:54.782Z,3.20
2018-09-28T11:04:23.728Z,3.87
2018-09-28T11:06:51.520Z,2.93
2018-09-28T11:09:19.314Z,3.53
2018-09-28T11:11:47.297Z,3.70
2018-09-28T11:14:15.112Z,3.40
2018-09-28T11:16:43.092Z,3.23
2018-09-28T11:19:10.946Z,2.87
2018-09-28T11:21:39.111Z,3.57
2018-09-28T11:24:06.899Z,3.37
2018-09-28T11:26:34.605Z,3.33
2018-09-28T11:29:02.294Z,2.70
2018-09-28T11:31:30.089Z,2.60
2018-09-28T11:33:57.893Z,3.10
2018-09-28T11:36:25.663Z,2.30
2018-09-28T11:38:53.336Z,3.20
2018-09-28T11:41:21.210Z,3.20
2018-09-28T11:43:50.524Z,2.90
2018-09-28T11:46:18.300Z,3.50
2018-09-28T11:48:46.033Z,3.00
2018-09-28T11:51:13.799Z,3.00
2018-09-28T11:53:41.456Z,2.80
2018-09-28T11:56:09.941Z,2.97
2018-09-28T11:58:37.669Z,3.20
2018-09-28T12:01:05.405Z,3.30
2018-09-28T12:03:33.097Z,2.90
2018-09-28T12:06:00.790Z,3.13
2018-09-28T12:08:28.447Z,2.53
2018-09-28T12:10:56.172Z,2.90
2018-09-28T12:13:23.813Z,3.70
2018-09-28T12:15:51.466Z,3.90
2018-09-28T12:18:19.214Z,3.17
2018-09-28T12:20:46.840Z,3.27
2018-09-28T12:23:14.528Z,3.73
2018-09-28T12:25:42.179Z,2.83
2018-09-28T12:28:09.775Z,3.07
2018-09-28T12:30:37.479Z,3.30
2018-09-28T12:33:05.473Z,3.40
2018-09-28T12:35:33.228Z,2.60
2018-09-28T12:38:00.938Z,2.77
2018-09-28T12:40:28.597Z,2.70
2018-09-28T12:42:56.205Z,3.00
2018-09-28T12:45:23.987Z,2.70
2018-09-28T12:47:51.661Z,3.03
2018-09-28T12:50:19.383Z,2.73
2018-09-28T12:52:47.051Z,2.77
2018-09-28T12:55:14.720Z,3.00
2018-09-28T12:57:42.358Z,2.70
2018-09-28T13:00:09.956Z,2.80
2018-09-28T13:02:37.729Z,2.33
2018-09-28T13:05:05.456Z,2.37
2018-09-28T13:07:34.320Z,2.27
2018-09-28T13:10:01.869Z,2.08
2018-09-28T13:12:29.552Z,2.50
2018-09-28T13:14:57.361Z,2.40
2018-09-28T13:17:24.891Z,2.80
2018-09-28T13:19:52.563Z,2.55
2018-09-28T13:22:20.208Z,2.20
2018-09-28T13:24:48.058Z,2.35
2018-09-28T13:27:15.609Z,2.52
2018-09-28T13:29:43.214Z,2.20
2018-09-28T13:32:10.796Z,1.90
2018-09-28T13:34:38.382Z,2.50
2018-09-28T13:37:06.341Z,2.40
2018-09-28T13:39:33.910Z,2.70
2018-09-28T13:42:01.546Z,2.50
2018-09-28T13:44:29.105Z,2.50
2018-09-28T13:46:56.666Z,2.08
2018-09-28T13:49:24.320Z,2.52
2018-09-28T13:51:53.227Z,2.58
2018-09-28T13:54:20.863Z,2.50
2018-09-28T13:56:48.456Z,2.10
2018-09-28T13:59:16.060Z,2.70
2018-09-28T14:01:43.739Z,1.85
2018-09-28T14:04:11.463Z,2.77
2018-09-28T14:06:39.172Z,1.92
2018-09-28T14:09:08.394Z,2.40
2018-09-28T14:11:36.134Z,2.27
2018-09-28T14:14:03.959Z,2.60
2018-09-28T14:16:31.615Z,2.27
2018-09-28T14:18:59.333Z,1.90
2018-09-28T14:21:26.990Z,2.10
2018-09-28T14:23:54.652Z,1.90
2018-09-28T14:26:22.356Z,2.08
2018-09-28T14:28:50.079Z,2.00
2018-09-28T14:31:17.660Z,1.60
2018-09-28T14:33:45.337Z,2.17
2018-09-28T14:36:13.028Z,1.95
2018-09-28T14:38:40.745Z,1.87
2018-09-28T14:41:08.387Z,2.22
2018-09-28T14:43:36.030Z,2.40
2018-09-28T14:46:03.725Z,2.22
2018-09-28T14:48:31.499Z,2.22
2018-09-28T14:50:59.041Z,2.58
2018-09-28T14:53:26.667Z,2.20
2018-09-28T14:55:56.433Z,2.50
2018-09-28T14:58:24.219Z,1.95
2018-09-28T15:00:52.102Z,2.45
2018-09-28T15:03:19.677Z,2.65
2018-09-28T15:05:47.605Z,2.10
2018-09-28T15:08:15.310Z,2.25
2018-09-28T15:10:43.009Z,1.98
2018-09-28T15:13:11.048Z,2.50
2018-09-28T15:15:38.756Z,2.27
2018-09-28T15:18:08.427Z,2.50
2018-09-28T15:20:36.225Z,1.85
2018-09-28T15:23:03.973Z,2.33
2018-09-28T15:25:31.620Z,2.33
2018-09-28T15:27:59.208Z,2.40
2018-09-28T15:30:26.848Z,1.90
2018-09-28T15:32:54.447Z,2.25
2018-09-28T15:35:22.076Z,1.98
2018-09-28T15:37:49.681Z,2.12
2018-09-28T15:40:17.331Z,2.27
2018-09-28T15:42:44.912Z,1.90
2018-09-28T15:45:12.539Z,2.45
2018-09-28T15:47:40.167Z,1.80
2018-09-28T15:50:07.874Z,1.80
2018-09-28T15:52:35.513Z,1.92
2018-09-28T15:55:03.292Z,1.98
2018-09-28T15:57:30.912Z,2.00
2018-09-28T15:59:58.516Z,2.20
2018-09-28T16:02:26.045Z,2.50
2018-09-28T16:04:53.731Z,1.90
2018-09-28T16:07:21.419Z,1.70
2018-09-28T16:09:49.221Z,2.00
2018-09-28T16:12:16.893Z,1.90
2018-09-28T16:14:44.601Z,2.27
2018-09-28T16:17:12.286Z,2.07
2018-09-28T16:19:40.791Z,2.00
2018-09-28T16:24:14.844Z,2.47
2018-09-28T16:26:42.500Z,2.10
2018-09-28T16:29:10.175Z,2.30
2018-09-28T16:31:37.910Z,2.50
